createdAt,value
2023-06-17T00:00:28.639Z,17.73
2023-06-17T00:03:01.132Z,19.90
2023-06-17T00:05:33.375Z,21.80
2023-06-17T00:08:05.697Z,20.98
2023-06-17T00:10:37.918Z,18.13
2023-06-17T00:13:10.256Z,26.17
2023-06-17T00:15:43.786Z,25.83
2023-06-17T00:18:21.302Z,17.15
2023-06-17T00:20:54.628Z,23.52
2023-06-17T00:23:26.803Z,20.55
2023-06-17T00:25:58.948Z,20.20
2023-06-17T00:28:31.182Z,19.05
2023-06-17T00:31:40.923Z,23.83
2023-06-17T00:34:13.082Z,30.80
2023-06-17T00:36:45.316Z,30.70
2023-06-17T00:39:17.393Z,21.25
2023-06-17T00:41:49.528Z,20.38
2023-06-17T00:44:24.691Z,23.67
2023-06-17T00:46:58.664Z,18.15
2023-06-17T00:49:45.299Z,24.73
2023-06-17T00:52:39.350Z,22.42
2023-06-17T00:55:12.382Z,19.88
2023-06-17T00:57:47.311Z,23.80
2023-06-17T01:00:20.200Z,28.88
2023-06-17T01:02:54.037Z,34.60
2023-06-17T01:05:26.765Z,37.17
2023-06-17T01:08:37.461Z,32.20
2023-06-17T01:11:16.316Z,26.73
2023-06-17T01:13:52.094Z,30.92
2023-06-17T01:16:26.853Z,29.27
2023-06-17T01:18:59.471Z,29.70
2023-06-17T01:21:32.760Z,37.10
2023-06-17T01:24:09.148Z,30.27
2023-06-17T01:26:41.695Z,36.22
2023-06-17T01:29:13.909Z,32.00
2023-06-17T01:31:49.926Z,33.85
2023-06-17T01:34:39.022Z,34.70
2023-06-17T01:37:15.204Z,34.83
2023-06-17T01:39:50.948Z,29.55
2023-06-17T01:42:32.900Z,30.38
2023-06-17T01:45:08.064Z,34.00
2023-06-17T01:47:40.831Z,33.83
2023-06-17T01:50:13.122Z,35.22
2023-06-17T01:52:45.501Z,29.95
2023-06-17T01:55:19.444Z,29.83
2023-06-17T01:57:51.861Z,29.55
2023-06-17T02:00:24.226Z,30.85
2023-06-17T02:02:56.499Z,41.58
2023-06-17T02:05:28.864Z,36.13
2023-06-17T02:08:02.702Z,37.33
2023-06-17T02:10:35.271Z,30.30
2023-06-17T02:13:09.437Z,27.23
2023-06-17T02:15:44.047Z,26.55
2023-06-17T02:18:16.381Z,27.83
2023-06-17T02:20:48.776Z,29.55
2023-06-17T02:23:21.405Z,31.95
2023-06-17T02:25:53.687Z,31.63
2023-06-17T02:28:26.656Z,32.00
2023-06-17T02:30:58.815Z,26.60
2023-06-17T02:33:31.176Z,29.15
2023-06-17T02:36:03.969Z,26.98
2023-06-17T02:38:37.264Z,35.47
2023-06-17T02:41:09.592Z,34.58
2023-06-17T02:43:41.959Z,28.58
2023-06-17T02:46:14.224Z,27.52
2023-06-17T02:48:46.425Z,29.90
2023-06-17T02:51:18.653Z,31.05
2023-06-17T02:53:51.462Z,31.10
2023-06-17T02:56:23.871Z,30.33
2023-06-17T02:58:56.020Z,30.10
2023-06-17T03:01:30.079Z,28.85
2023-06-17T03:04:05.032Z,32.10
2023-06-17T03:06:37.471Z,29.80
2023-06-17T03:09:09.912Z,24.88
2023-06-17T03:11:42.134Z,31.38
2023-06-17T03:14:20.862Z,31.88
2023-06-17T03:16:53.396Z,31.63
2023-06-17T03:19:26.622Z,31.20
2023-06-17T03:21:58.761Z,31.50
2023-06-17T03:24:30.981Z,29.27
2023-06-17T03:27:03.317Z,30.50
2023-06-17T03:29:38.030Z,30.42
2023-06-17T03:32:10.487Z,31.95
2023-06-17T03:34:44.210Z,39.03
2023-06-17T03:37:16.580Z,28.77
2023-06-17T03:39:54.001Z,31.70
2023-06-17T03:42:26.155Z,36.03
2023-06-17T03:44:58.315Z,38.30
2023-06-17T03:47:30.533Z,28.00
2023-06-17T03:50:02.683Z,31.20
2023-06-17T03:52:35.251Z,33.50
2023-06-17T03:55:08.022Z,33.50
2023-06-17T03:57:40.187Z,28.92
2023-06-17T04:00:12.874Z,28.35
2023-06-17T04:02:48.774Z,29.17
2023-06-17T04:05:21.694Z,28.23
2023-06-17T04:07:55.227Z,28.48
2023-06-17T04:10:27.811Z,33.75
2023-06-17T04:13:00.008Z,30.98
2023-06-17T04:15:32.199Z,24.77
2023-06-17T04:18:04.572Z,30.63
2023-06-17T04:20:37.052Z,24.58
2023-06-17T04:23:09.329Z,26.77
2023-06-17T04:25:42.358Z,35.60
2023-06-17T04:28:19.027Z,24.75
2023-06-17T04:30:52.943Z,24.15
2023-06-17T04:33:25.995Z,36.75
2023-06-17T04:37:06.039Z,28.38
2023-06-17T04:39:38.306Z,32.53
2023-06-17T04:42:17.573Z,31.30
2023-06-17T04:44:54.023Z,31.13
2023-06-17T04:47:26.216Z,31.88
2023-06-17T04:49:59.140Z,29.38
2023-06-17T04:52:32.407Z,25.17
2023-06-17T04:55:05.053Z,30.77
2023-06-17T04:57:37.209Z,26.40
2023-06-17T05:00:11.599Z,25.63
2023-06-17T05:02:43.935Z,32.30
2023-06-17T05:05:16.084Z,30.40
2023-06-17T05:07:48.291Z,37.33
2023-06-17T05:10:22.629Z,25.13
2023-06-17T05:12:55.007Z,31.30
2023-06-17T05:15:27.068Z,23.45
2023-06-17T05:17:59.202Z,25.88
2023-06-17T05:20:31.421Z,29.40
2023-06-17T05:23:03.576Z,29.00
2023-06-17T05:25:35.662Z,26.25
2023-06-17T05:31:59.783Z,24.05
2023-06-17T05:34:37.001Z,27.88
2023-06-17T05:37:09.122Z,27.48
2023-06-17T05:39:41.420Z,24.08
2023-06-17T05:42:13.858Z,27.55
2023-06-17T05:44:46.364Z,25.75
2023-06-17T05:47:20.893Z,23.50
2023-06-17T05:49:53.161Z,21.23
2023-06-17T05:52:25.674Z,24.13
2023-06-17T05:54:57.917Z,27.48
2023-06-17T05:57:30.015Z,18.00
2023-06-17T06:00:02.173Z,25.35
2023-06-17T06:02:34.290Z,26.95
2023-06-17T06:05:07.636Z,20.65
2023-06-17T06:07:39.749Z,27.83
2023-06-17T06:10:12.958Z,23.48
2023-06-17T06:12:45.138Z,23.77
2023-06-17T06:15:17.210Z,25.33
2023-06-17T06:17:49.362Z,28.55
2023-06-17T06:20:21.865Z,21.33
2023-06-17T06:22:54.665Z,26.63
2023-06-17T06:25:26.843Z,25.98
2023-06-17T06:28:00.057Z,23.80
2023-06-17T06:30:32.209Z,18.65
2023-06-17T06:33:04.495Z,20.85
2023-06-17T06:35:37.049Z,24.92
2023-06-17T06:38:09.242Z,25.30
2023-06-17T06:40:41.801Z,37.67
2023-06-17T06:43:13.958Z,34.58
2023-06-17T06:45:46.067Z,18.88
2023-06-17T06:48:18.307Z,21.08
2023-06-17T06:50:50.394Z,27.52
2023-06-17T06:53:25.345Z,20.63
2023-06-17T06:55:57.979Z,33.28
2023-06-17T06:58:30.111Z,23.50
2023-06-17T07:01:02.231Z,20.10
2023-06-17T07:03:34.526Z,23.65
2023-06-17T07:06:06.674Z,28.25
2023-06-17T07:08:38.813Z,25.60
2023-06-17T07:11:11.016Z,27.02
2023-06-17T07:13:43.264Z,28.48
2023-06-17T07:16:15.846Z,37.25
2023-06-17T07:18:48.019Z,28.30
2023-06-17T07:21:20.147Z,32.22
2023-06-17T07:23:52.606Z,32.25
2023-06-17T07:26:24.755Z,29.45
2023-06-17T07:28:56.955Z,21.10
2023-06-17T07:31:31.939Z,20.65
2023-06-17T07:34:04.289Z,24.67
2023-06-17T07:36:36.373Z,35.40
2023-06-17T07:39:08.977Z,29.58
2023-06-17T07:41:41.128Z,31.27
2023-06-17T07:44:38.276Z,26.08
2023-06-17T07:47:10.364Z,26.42
2023-06-17T07:49:42.516Z,30.88
2023-06-17T07:52:14.690Z,25.88
2023-06-17T07:54:49.137Z,24.13
2023-06-17T07:57:21.258Z,30.02
2023-06-17T07:59:53.577Z,31.92
2023-06-17T08:02:25.971Z,33.38
2023-06-17T08:04:58.091Z,30.95
2023-06-17T08:07:30.160Z,32.95
2023-06-17T08:10:02.705Z,32.60
2023-06-17T08:12:34.824Z,31.23
2023-06-17T08:15:08.126Z,35.72
2023-06-17T08:17:40.325Z,29.30
2023-06-17T08:20:13.016Z,26.88
2023-06-17T08:22:45.199Z,35.22
2023-06-17T08:25:47.171Z,30.27
2023-06-17T08:28:19.547Z,28.75
2023-06-17T08:31:32.366Z,32.38
2023-06-17T08:34:04.556Z,28.42
2023-06-17T08:36:38.686Z,26.98
2023-06-17T08:39:12.089Z,28.25
2023-06-17T08:41:45.422Z,36.75
2023-06-17T08:44:19.841Z,23.50
2023-06-17T08:46:52.981Z,23.40
2023-06-17T08:49:28.136Z,24.02
2023-06-17T08:52:02.089Z,25.33
2023-06-17T08:59:47.860Z,29.67
2023-06-17T09:08:43.645Z,37.90
2023-06-17T09:11:15.967Z,33.88
2023-06-17T09:13:51.840Z,32.88
2023-06-17T09:16:28.144Z,32.60
2023-06-17T09:19:06.395Z,140.35
2023-06-17T09:21:38.557Z,36.47
2023-06-17T09:24:11.133Z,33.95
2023-06-17T09:26:45.367Z,27.65
2023-06-17T09:29:18.019Z,28.00
2023-06-17T09:32:46.290Z,25.98
2023-06-17T09:35:18.822Z,27.92
2023-06-17T09:38:06.349Z,26.85
2023-06-17T09:41:21.753Z,23.88
2023-06-17T09:43:55.969Z,23.98
2023-06-17T09:47:26.587Z,34.35
2023-06-17T09:50:07.035Z,32.33
2023-06-17T09:52:41.499Z,24.55
2023-06-17T09:55:14.113Z,28.73
2023-06-17T09:57:47.408Z,31.00
2023-06-17T10:00:21.268Z,31.55
2023-06-17T10:02:54.932Z,27.00
2023-06-17T10:05:28.599Z,24.23
2023-06-17T10:08:01.092Z,31.48
2023-06-17T10:10:33.422Z,26.27
2023-06-17T10:13:09.207Z,31.30
2023-06-17T10:15:41.941Z,22.85
2023-06-17T10:18:17.816Z,28.55
2023-06-17T10:20:52.126Z,23.90
2023-06-17T10:23:24.790Z,33.97
2023-06-17T10:25:56.940Z,25.77
2023-06-17T10:28:45.916Z,24.13
2023-06-17T10:31:31.444Z,24.20
2023-06-17T10:34:07.613Z,27.15
2023-06-17T10:36:39.769Z,29.75
2023-06-17T10:39:13.850Z,23.05
2023-06-17T10:42:02.524Z,24.50
2023-06-17T10:44:38.580Z,27.48
2023-06-17T10:47:23.392Z,24.38
2023-06-17T10:49:56.094Z,25.52
2023-06-17T10:52:31.311Z,25.48
2023-06-17T10:55:04.321Z,25.95
2023-06-17T10:57:38.526Z,26.98
2023-06-17T11:00:13.449Z,22.75
2023-06-17T11:02:45.960Z,25.17
2023-06-17T11:05:24.812Z,26.73
2023-06-17T11:07:59.683Z,25.20
2023-06-17T11:10:32.726Z,19.42
2023-06-17T11:13:05.974Z,24.30
2023-06-17T11:15:38.123Z,15.85
2023-06-17T11:18:10.670Z,24.20
2023-06-17T11:20:43.898Z,16.02
2023-06-17T11:23:16.478Z,13.60
2023-06-17T11:25:54.279Z,16.10
2023-06-17T11:28:26.726Z,15.63
2023-06-17T11:30:59.333Z,15.93
2023-06-17T11:33:36.189Z,14.02
2023-06-17T11:36:14.332Z,19.08
2023-06-17T11:38:48.044Z,14.68
2023-06-17T11:41:20.660Z,12.60
2023-06-17T11:43:53.306Z,18.45
2023-06-17T11:46:26.187Z,16.08
2023-06-17T11:48:59.378Z,19.25
2023-06-17T11:51:33.688Z,27.58
2023-06-17T11:54:07.392Z,22.58
2023-06-17T11:56:39.627Z,16.23
2023-06-17T11:59:16.498Z,13.75
2023-06-17T12:01:48.934Z,18.70
2023-06-17T12:04:21.559Z,15.93
2023-06-17T12:06:55.055Z,18.88
2023-06-17T12:09:27.569Z,16.70
2023-06-17T12:12:00.740Z,15.43
2023-06-17T12:15:39.116Z,19.08
2023-06-17T12:18:15.260Z,13.27
2023-06-17T12:20:51.664Z,14.67
2023-06-17T12:23:23.874Z,17.98
2023-06-17T12:25:56.118Z,14.15
2023-06-17T12:28:28.452Z,9.85
2023-06-17T12:31:00.798Z,15.20
2023-06-17T12:33:33.039Z,14.10
2023-06-17T12:36:08.685Z,12.90
2023-06-17T12:38:41.194Z,9.88
2023-06-17T12:41:13.765Z,12.35
2023-06-17T12:46:21.687Z,9.15
2023-06-17T12:48:53.853Z,10.55
2023-06-17T12:51:26.127Z,9.98
2023-06-17T12:53:58.635Z,12.07
2023-06-17T12:56:31.383Z,10.23
2023-06-17T12:59:05.944Z,10.02
2023-06-17T13:01:39.462Z,10.23
2023-06-17T13:04:11.809Z,11.63
2023-06-17T13:06:45.597Z,8.20
2023-06-17T13:09:39.210Z,8.77
2023-06-17T13:12:12.643Z,13.90
2023-06-17T13:14:45.053Z,9.77
2023-06-17T13:17:18.063Z,6.53
2023-06-17T13:23:54.532Z,12.68
2023-06-17T13:26:30.770Z,9.95
2023-06-17T13:32:19.842Z,12.07
2023-06-17T13:34:54.996Z,9.98
2023-06-17T13:37:27.419Z,11.43
2023-06-17T13:40:09.616Z,14.50
2023-06-17T13:42:44.433Z,13.00
2023-06-17T13:45:16.859Z,9.00
2023-06-17T13:47:49.052Z,11.48
2023-06-17T13:50:21.907Z,15.75
2023-06-17T13:53:17.080Z,10.32
2023-06-17T13:55:49.970Z,12.52
2023-06-17T13:58:22.243Z,11.70
2023-06-17T14:00:54.869Z,13.32
2023-06-17T14:03:27.145Z,17.02
2023-06-17T14:05:59.874Z,11.95
2023-06-17T14:08:37.649Z,16.58
2023-06-17T14:11:13.150Z,14.68
2023-06-17T14:13:45.273Z,14.10
2023-06-17T14:16:17.630Z,13.10
2023-06-17T14:18:51.993Z,12.60
2023-06-17T14:21:36.011Z,13.70
2023-06-17T14:24:11.065Z,14.48
2023-06-17T14:26:46.256Z,11.15
2023-06-17T14:29:18.561Z,14.80
2023-06-17T14:31:50.716Z,18.00
2023-06-17T14:34:23.083Z,11.23
2023-06-17T14:36:55.327Z,13.85
2023-06-17T14:39:28.228Z,12.68
2023-06-17T14:42:00.588Z,15.85
2023-06-17T14:44:32.888Z,12.55
2023-06-17T14:47:07.682Z,14.68
2023-06-17T14:49:39.933Z,10.40
2023-06-17T14:52:13.400Z,10.63
2023-06-17T14:54:46.040Z,11.30
2023-06-17T14:57:18.313Z,12.90
2023-06-17T14:59:50.850Z,9.93
2023-06-17T15:02:49.771Z,12.40
2023-06-17T15:05:37.728Z,13.18
2023-06-17T15:08:09.874Z,13.65
2023-06-17T15:10:45.589Z,11.20
2023-06-17T15:13:17.724Z,16.85
2023-06-17T15:15:49.863Z,11.35
2023-06-17T15:19:40.133Z,10.05
2023-06-17T15:22:12.321Z,16.80
2023-06-17T15:24:45.012Z,12.70
2023-06-17T15:27:17.298Z,12.85
2023-06-17T15:29:49.404Z,16.55
2023-06-17T15:36:14.075Z,10.60
2023-06-17T15:42:28.960Z,18.10
2023-06-17T15:45:01.140Z,13.20
2023-06-17T15:47:33.439Z,20.98
2023-06-17T15:50:06.359Z,15.82
2023-06-17T15:52:38.581Z,13.75
2023-06-17T15:55:11.478Z,10.18
2023-06-17T15:57:43.628Z,11.27
2023-06-17T16:00:16.365Z,9.98
2023-06-17T16:02:48.623Z,11.50
2023-06-17T16:05:21.058Z,12.20
2023-06-17T16:07:53.213Z,11.80
2023-06-17T16:10:27.702Z,11.05
2023-06-17T16:12:59.918Z,8.68
2023-06-17T16:15:33.105Z,11.07
2023-06-17T16:18:05.398Z,10.40
2023-06-17T16:20:37.770Z,11.48
2023-06-17T16:23:10.037Z,12.80
2023-06-17T16:25:54.714Z,13.02
2023-06-17T16:28:27.569Z,15.23
2023-06-17T16:30:59.705Z,11.73
2023-06-17T16:33:32.003Z,13.10
2023-06-17T16:36:04.414Z,13.48
2023-06-17T16:41:59.067Z,10.38
2023-06-17T16:44:31.420Z,8.40
2023-06-17T16:47:03.764Z,12.30
2023-06-17T16:49:37.288Z,10.07
2023-06-17T16:52:09.930Z,14.27
2023-06-17T16:54:42.209Z,10.85
2023-06-17T16:57:14.458Z,9.63
2023-06-17T16:59:48.645Z,10.05
2023-06-17T17:02:21.105Z,8.77
2023-06-17T17:05:41.809Z,10.15
2023-06-17T17:08:16.858Z,13.75
2023-06-17T17:10:49.166Z,10.23
2023-06-17T17:13:21.514Z,13.07
2023-06-17T17:15:53.791Z,11.25
2023-06-17T17:18:28.927Z,13.10
2023-06-17T17:21:01.218Z,14.55
2023-06-17T17:23:33.740Z,9.20
2023-06-17T17:26:06.002Z,9.35
2023-06-17T17:28:38.132Z,9.15
2023-06-17T17:34:55.945Z,14.57
2023-06-17T17:37:28.778Z,16.17
2023-06-17T17:40:01.253Z,17.63
2023-06-17T17:42:33.403Z,17.20
2023-06-17T17:45:06.497Z,19.17
2023-06-17T17:47:38.831Z,14.20
2023-06-17T17:50:13.201Z,19.48
2023-06-17T17:52:46.048Z,20.58
2023-06-17T17:58:38.850Z,18.45
2023-06-17T18:01:11.010Z,20.88
2023-06-17T18:03:45.940Z,20.40
2023-06-17T18:06:19.601Z,21.55
2023-06-17T18:08:52.223Z,24.25
2023-06-17T18:11:24.687Z,18.92
2023-06-17T18:13:58.535Z,23.08
2023-06-17T18:16:31.197Z,22.65
2023-06-17T18:19:03.650Z,21.60
2023-06-17T18:21:36.378Z,27.80
2023-06-17T18:24:09.560Z,27.85
2023-06-17T18:26:41.884Z,23.13
2023-06-17T18:29:14.064Z,21.10
2023-06-17T18:31:52.087Z,23.17
2023-06-17T18:34:27.353Z,31.88
2023-06-17T18:36:59.560Z,28.92
2023-06-17T18:39:35.033Z,28.95
2023-06-17T18:42:07.383Z,23.95
2023-06-17T18:44:39.745Z,24.05
2023-06-17T18:47:12.469Z,26.25
2023-06-17T18:49:44.831Z,26.13
2023-06-17T18:52:17.375Z,27.00
2023-06-17T18:54:49.797Z,24.13
2023-06-17T18:57:22.141Z,22.73
2023-06-17T18:59:54.347Z,22.27
2023-06-17T19:02:28.267Z,26.98
2023-06-17T19:05:06.221Z,28.10
2023-06-17T19:07:42.304Z,24.85
2023-06-17T19:10:14.604Z,21.83
2023-06-17T19:12:49.515Z,20.92
2023-06-17T19:15:22.097Z,24.75
2023-06-17T19:17:54.307Z,23.00
2023-06-17T19:20:26.866Z,22.95
2023-06-17T19:22:59.175Z,24.42
2023-06-17T19:25:31.872Z,29.98
2023-06-17T19:28:04.396Z,29.13
2023-06-17T19:30:36.806Z,24.92
2023-06-17T19:33:09.046Z,30.08
2023-06-17T19:35:41.328Z,26.55
2023-06-17T19:38:16.161Z,22.35
2023-06-17T19:40:48.424Z,18.50
2023-06-17T19:43:23.916Z,25.63
2023-06-17T19:45:56.259Z,19.95
2023-06-17T19:48:28.922Z,26.02
2023-06-17T19:51:01.140Z,21.58
2023-06-17T19:53:33.336Z,24.88
2023-06-17T19:56:10.470Z,24.02
2023-06-17T19:58:44.434Z,22.60
2023-06-17T20:01:18.875Z,26.48
2023-06-17T20:03:51.247Z,26.33
2023-06-17T20:06:25.661Z,18.92
2023-06-17T20:09:11.780Z,21.70
2023-06-17T20:11:44.111Z,26.05
2023-06-17T20:14:17.450Z,24.98
2023-06-17T20:16:50.183Z,22.80
2023-06-17T20:19:22.890Z,27.10
2023-06-17T20:21:55.145Z,23.63
2023-06-17T20:24:27.742Z,22.98
2023-06-17T20:27:00.119Z,24.70
2023-06-17T20:29:32.496Z,25.95
2023-06-17T20:32:05.808Z,26.80
2023-06-17T20:35:42.712Z,27.40
2023-06-17T21:17:59.679Z,29.17
2023-06-17T21:20:32.016Z,30.52
2023-06-17T21:23:04.501Z,30.98
2023-06-17T21:25:36.740Z,27.95
2023-06-17T21:28:08.953Z,31.98
2023-06-17T21:30:41.393Z,27.85
2023-06-17T21:33:14.122Z,30.20
2023-06-17T21:35:46.423Z,32.75
2023-06-17T21:38:18.697Z,26.42
2023-06-17T21:40:51.100Z,45.58
2023-06-17T21:43:23.217Z,28.30
2023-06-17T21:45:55.374Z,27.77
2023-06-17T21:48:28.248Z,24.88
2023-06-17T21:51:00.609Z,29.48
2023-06-17T21:53:32.738Z,30.05
2023-06-17T21:56:05.183Z,25.25
2023-06-17T21:58:37.327Z,29.60
2023-06-17T22:01:09.878Z,23.02
2023-06-17T22:03:42.446Z,25.05
2023-06-17T22:06:14.935Z,29.25
2023-06-17T22:08:47.096Z,29.13
2023-06-17T22:11:19.320Z,32.35
2023-06-17T22:13:51.727Z,30.02
2023-06-17T22:16:24.125Z,29.38
2023-06-17T22:18:57.804Z,27.10
2023-06-17T22:21:30.106Z,31.38
2023-06-17T22:24:02.536Z,25.50
2023-06-17T22:26:34.910Z,27.92
2023-06-17T22:29:07.057Z,32.15
2023-06-17T22:31:39.311Z,33.15
2023-06-17T22:34:11.532Z,28.73
2023-06-17T22:36:43.678Z,28.40
2023-06-17T22:39:15.826Z,27.65
2023-06-17T22:41:48.020Z,26.15
2023-06-17T22:44:23.562Z,29.33
2023-06-17T22:46:56.042Z,27.13
2023-06-17T22:49:28.217Z,26.40
2023-06-17T22:52:00.565Z,24.83
2023-06-17T22:54:34.147Z,27.08
2023-06-17T22:57:07.289Z,26.20
2023-06-17T22:59:39.441Z,25.85
2023-06-17T23:02:13.501Z,33.78
2023-06-17T23:04:45.783Z,30.77
2023-06-17T23:07:19.314Z,30.73
2023-06-17T23:09:51.570Z,29.52
2023-06-17T23:12:23.839Z,28.98
2023-06-17T23:14:56.422Z,31.83
2023-06-17T23:17:28.707Z,27.60
2023-06-17T23:20:01.796Z,34.08
2023-06-17T23:22:34.983Z,28.35
2023-06-17T23:25:08.745Z,27.45
2023-06-17T23:27:41.965Z,31.95
2023-06-17T23:30:14.847Z,32.08
2023-06-17T23:32:48.150Z,29.25
2023-06-17T23:35:21.653Z,34.10
2023-06-17T23:37:53.773Z,32.75
2023-06-17T23:40:26.052Z,31.80
2023-06-17T23:42:58.213Z,28.77
2023-06-17T23:45:30.776Z,32.88
2023-06-17T23:48:03.208Z,33.45
2023-06-17T23:50:35.622Z,32.28
2023-06-17T23:53:07.824Z,33.63
2023-06-17T23:55:40.012Z,37.40
2023-06-17T23:58:12.504Z,27.80
